Time;durP1;ratioP1;P1;durP2;ratioP2;P2;SDS_P1;SDS_P2;PMS_P1;PMS_P2;Temp;Humidity;BMP_temperature;BMP_pressure;BME280_temperature;BME280_humidity;BME280_pressure;Samples;Min_cycle;Max_cycle;Signal;HPM_P1;HPM_P2
2022/09/22 00:01:31;;;;;;;6.50;2.58;;;;;;;7.95;100.00;102412.44;5031316;28;20045;-51
2022/09/22 00:04:04;;;;;;;5.95;2.53;;;;;;;7.89;100.00;102400.34;5032883;28;20048;-50
2022/09/22 00:06:36;;;;;;;7.28;2.90;;;;;;;7.94;100.00;102402.88;5032595;28;20038;-49
2022/09/22 00:09:05;;;;;;;7.03;2.58;;;;;;;7.81;100.00;102397.09;5032290;28;20057;-50
2022/09/22 00:11:36;;;;;;;7.63;2.47;;;;;;;7.94;100.00;102403.72;5032256;28;20051;-51
2022/09/22 00:14:08;;;;;;;5.55;2.58;;;;;;;7.90;100.00;102412.56;5032724;28;20045;-49
2022/09/22 00:16:39;;;;;;;9.90;2.40;;;;;;;7.95;100.00;102401.97;5031011;28;20056;-48
2022/09/22 00:19:11;;;;;;;5.47;2.50;;;;;;;7.82;100.00;102406.69;5032455;28;20050;-52
2022/09/22 00:21:39;;;;;;;8.80;2.42;;;;;;;7.84;100.00;102404.91;5032051;28;20041;-52
2022/09/22 00:24:08;;;;;;;5.43;2.30;;;;;;;7.86;100.00;102397.84;5032591;28;20041;-51
2022/09/22 00:26:37;;;;;;;6.55;2.40;;;;;;;7.91;100.00;102395.94;5032109;28;20056;-48
2022/09/22 00:29:08;;;;;;;4.93;2.60;;;;;;;7.83;100.00;102397.94;5032214;28;20037;-52
2022/09/22 00:31:37;;;;;;;6.88;2.67;;;;;;;7.77;100.00;102388.50;5030226;28;20041;-50
2022/09/22 00:34:06;;;;;;;5.43;2.58;;;;;;;7.70;100.00;102400.06;5031763;28;20151;-51
2022/09/22 00:36:36;;;;;;;5.05;2.42;;;;;;;7.73;100.00;102396.47;5031900;28;20053;-51
2022/09/22 00:39:04;;;;;;;6.13;2.38;;;;;;;7.74;100.00;102393.84;5032271;28;20052;-52
2022/09/22 00:41:39;;;;;;;6.25;2.38;;;;;;;7.74;100.00;102396.44;5014025;28;20064;-51
2022/09/22 00:44:39;;;;;;;6.32;2.20;;;;;;;7.77;100.00;102396.34;5031722;28;20569;-50
2022/09/22 00:47:34;;;;;;;6.35;2.00;;;;;;;7.66;100.00;102392.31;5029998;28;20045;-47
2022/09/22 00:50:15;;;;;;;5.43;2.40;;;;;;;7.66;100.00;102390.53;5029849;28;20073;-48
2022/09/22 00:52:48;;;;;;;4.57;2.00;;;;;;;7.64;100.00;102384.50;5031608;28;20056;-48
2022/09/22 00:55:20;;;;;;;8.23;2.55;;;;;;;7.59;100.00;102387.25;5031830;28;20049;-53
2022/09/22 00:57:49;;;;;;;5.97;2.33;;;;;;;7.63;100.00;102382.78;5031178;28;20048;-51
2022/09/22 01:00:20;;;;;;;4.32;2.10;;;;;;;7.65;100.00;102382.72;5031406;28;20045;-54
2022/09/22 01:02:51;;;;;;;5.20;2.30;;;;;;;7.60;100.00;102375.88;5029809;28;20060;-49
2022/09/22 01:05:23;;;;;;;6.20;2.53;;;;;;;7.51;100.00;102372.66;5031167;28;20041;-52
2022/09/22 01:07:54;;;;;;;6.63;2.30;;;;;;;7.52;100.00;102374.38;5013755;28;20080;-52
2022/09/22 01:10:23;;;;;;;3.92;2.08;;;;;;;7.52;100.00;102372.59;5031614;28;20752;-48
2022/09/22 01:13:15;;;;;;;5.22;2.17;;;;;;;7.56;100.00;102363.75;5031438;28;20510;-54
2022/09/22 01:15:52;;;;;;;5.07;1.90;;;;;;;7.42;100.00;102363.31;5031292;28;20488;-51
2022/09/22 01:18:26;;;;;;;6.00;2.05;;;;;;;7.40;100.00;102355.50;5030923;28;20162;-52
2022/09/22 01:21:18;;;;;;;3.42;1.70;;;;;;;7.32;100.00;102352.25;5031772;28;20169;-51
2022/09/22 01:24:32;;;;;;;6.22;2.40;;;;;;;7.32;100.00;102353.97;5031707;28;20514;-50
2022/09/22 01:27:38;;;;;;;5.60;2.15;;;;;;;7.32;100.00;102351.34;5031065;28;20063;-52
2022/09/22 01:30:19;;;;;;;6.18;2.42;;;;;;;7.28;100.00;102351.44;5030878;28;20057;-49
2022/09/22 01:33:04;;;;;;;4.55;2.15;;;;;;;7.28;100.00;102346.22;5029636;28;20136;-49
2022/09/22 01:35:40;;;;;;;6.05;2.40;;;;;;;7.30;100.00;102350.56;5030574;28;20048;-49
2022/09/22 01:38:15;;;;;;;4.22;2.13;;;;;;;7.22;100.00;102346.38;5030946;28;20076;-52
2022/09/22 01:40:51;;;;;;;6.18;2.15;;;;;;;7.21;100.00;102349.91;5031739;28;20053;-51
2022/09/22 01:43:31;;;;;;;5.70;2.55;;;;;;;7.18;100.00;102342.13;5030313;28;20408;-50
2022/09/22 01:46:06;;;;;;;7.43;2.38;;;;;;;7.17;100.00;102345.66;5029473;28;20053;-49
2022/09/22 01:48:40;;;;;;;5.88;2.10;;;;;;;7.21;100.00;102344.69;5030774;28;20045;-49
2022/09/22 01:51:13;;;;;;;5.30;2.20;;;;;;;7.26;100.00;102337.53;5030666;28;20116;-48
2022/09/22 01:53:46;;;;;;;6.00;2.40;;;;;;;7.23;100.00;102336.78;5031147;28;20115;-51
2022/09/22 01:56:18;;;;;;;5.57;2.15;;;;;;;7.26;100.00;102331.47;5030501;28;20041;-52
2022/09/22 01:58:49;;;;;;;4.57;2.20;;;;;;;7.14;100.00;102330.03;5031028;28;20597;-49
2022/09/22 02:01:22;;;;;;;4.68;2.08;;;;;;;7.08;100.00;102330.19;5029113;28;20088;-50
2022/09/22 02:03:56;;;;;;;4.93;2.25;;;;;;;7.07;100.00;102320.63;5030705;28;20057;-50
2022/09/22 02:06:31;;;;;;;6.05;2.47;;;;;;;7.05;100.00;102322.44;5030724;28;20045;-51
2022/09/22 02:09:03;;;;;;;6.22;2.20;;;;;;;6.98;100.00;102321.75;5030825;28;20105;-49
2022/09/22 02:11:31;;;;;;;9.77;2.67;;;;;;;6.93;100.00;102321.84;5030317;28;20064;-48
2022/09/22 02:14:01;;;;;;;4.43;2.38;;;;;;;6.94;100.00;102318.34;5030556;28;20053;-51
2022/09/22 02:16:31;;;;;;;8.13;2.80;;;;;;;6.95;100.00;102316.56;5029328;28;20061;-49
2022/09/22 02:19:05;;;;;;;4.53;2.30;;;;;;;7.04;100.00;102315.50;5030869;28;20115;-48
2022/09/22 02:21:43;;;;;;;5.75;2.40;;;;;;;7.03;100.00;102308.53;5030586;28;20423;-51
2022/09/22 02:24:30;;;;;;;5.30;2.50;;;;;;;6.98;100.00;102305.16;5030395;28;20045;-48
2022/09/22 02:27:01;;;;;;;4.50;2.42;;;;;;;6.97;100.00;102299.09;5030327;28;20459;-50
2022/09/22 02:29:32;;;;;;;4.97;2.20;;;;;;;6.89;100.00;102307.13;5030374;28;20107;-51
2022/09/22 02:32:06;;;;;;;6.57;2.28;;;;;;;6.93;100.00;102303.53;5028410;28;20493;-51
2022/09/22 02:34:35;;;;;;;4.75;2.30;;;;;;;6.89;100.00;102299.28;5030120;28;20056;-50
2022/09/22 02:37:08;;;;;;;6.28;2.38;;;;;;;6.93;100.00;102298.31;5030083;28;20542;-49
2022/09/22 02:39:40;;;;;;;5.18;2.67;;;;;;;6.89;100.00;102303.69;5030258;28;20041;-52
2022/09/22 02:42:26;;;;;;;4.60;2.35;;;;;;;6.81;100.00;102297.78;5029798;28;20104;-51
2022/09/22 02:45:00;;;;;;;5.50;2.42;;;;;;;6.76;100.00;102296.16;5030731;28;20045;-50
2022/09/22 02:47:35;;;;;;;6.38;2.60;;;;;;;6.85;100.00;102294.19;5035794;28;20055;-52
2022/09/22 02:50:08;;;;;;;8.13;2.90;;;;;;;6.78;100.00;102296.09;5036843;28;20045;-50
2022/09/22 02:52:38;;;;;;;7.03;2.45;;;;;;;6.70;100.00;102292.84;5036739;28;20496;-49
2022/09/22 02:55:07;;;;;;;5.30;2.28;;;;;;;6.67;100.00;102295.53;5036373;28;20136;-50
2022/09/22 02:57:36;;;;;;;6.20;2.53;;;;;;;6.72;100.00;102293.63;5036347;28;20045;-51
2022/09/22 03:00:06;;;;;;;5.40;2.58;;;;;;;6.76;100.00;102292.66;5036743;28;20045;-49
2022/09/22 03:02:35;;;;;;;4.95;2.60;;;;;;;6.72;100.00;102296.25;5034979;28;20080;-50
2022/09/22 03:05:04;;;;;;;6.75;2.75;;;;;;;6.69;100.00;102293.72;5036351;28;20103;-51
2022/09/22 03:07:32;;;;;;;5.63;2.70;;;;;;;6.76;100.00;102288.31;5037052;28;20495;-50
2022/09/22 03:10:00;;;;;;;6.53;2.83;;;;;;;6.69;100.00;102291.97;5036562;28;20056;-51
2022/09/22 03:12:28;;;;;;;4.72;2.38;;;;;;;6.73;100.00;102284.91;5036219;28;20049;-49
2022/09/22 03:14:57;;;;;;;6.05;2.50;;;;;;;6.70;100.00;102291.06;5036440;28;20056;-49
2022/09/22 03:17:25;;;;;;;4.50;2.90;;;;;;;6.81;100.00;102285.56;5034394;28;20412;-49
2022/09/22 03:19:54;;;;;;;5.30;2.70;;;;;;;6.74;100.00;102284.00;5036462;28;20229;-49
2022/09/22 03:22:22;;;;;;;8.13;2.92;;;;;;;6.72;100.00;102277.94;5036023;28;20054;-50
2022/09/22 03:24:50;;;;;;;5.65;2.42;;;;;;;6.64;100.00;102272.94;5036251;28;20041;-49
2022/09/22 03:27:18;;;;;;;4.72;2.60;;;;;;;6.64;100.00;102278.16;5018751;28;20115;-50
2022/09/22 03:29:46;;;;;;;4.90;2.42;;;;;;;6.68;100.00;102268.47;5036433;28;20480;-49
2022/09/22 03:32:14;;;;;;;4.55;2.90;;;;;;;6.59;100.00;102267.81;5034372;28;20072;-48
2022/09/22 03:34:42;;;;;;;5.80;2.95;;;;;;;6.65;100.00;102273.78;5036241;28;20594;-47
2022/09/22 03:37:12;;;;;;;6.03;2.50;;;;;;;6.60;100.00;102263.47;5035978;28;20073;-47
2022/09/22 03:39:40;;;;;;;6.10;2.83;;;;;;;6.59;100.00;102262.59;5036678;28;20041;-47
2022/09/22 03:42:08;;;;;;;6.45;2.63;;;;;;;6.50;100.00;102262.81;5035396;28;20095;-49
2022/09/22 03:44:36;;;;;;;6.63;2.97;;;;;;;6.49;100.00;102266.34;5036295;28;20175;-47
2022/09/22 03:47:04;;;;;;;6.97;3.30;;;;;;;6.50;100.00;102267.19;5034343;28;20056;-48
2022/09/22 03:49:33;;;;;;;6.55;2.72;;;;;;;6.59;100.00;102270.44;5036239;28;20132;-47
2022/09/22 03:52:02;;;;;;;6.28;2.97;;;;;;;6.53;100.00;102267.97;5035890;28;20053;-49
2022/09/22 03:54:31;;;;;;;7.65;3.30;;;;;;;6.48;100.00;102276.84;5036466;28;20574;-51
2022/09/22 03:56:59;;;;;;;7.22;3.15;;;;;;;6.46;100.00;102271.63;5033840;28;20107;-50
2022/09/22 03:59:27;;;;;;;6.30;2.97;;;;;;;6.44;100.00;102273.44;5032875;28;20041;-49
2022/09/22 04:01:55;;;;;;;6.53;3.33;;;;;;;6.42;100.00;102267.38;5030689;28;20064;-53
2022/09/22 04:04:25;;;;;;;9.43;3.20;;;;;;;6.38;100.00;102268.34;5032444;28;20076;-49
2022/09/22 04:06:53;;;;;;;8.20;3.00;;;;;;;6.42;100.00;102273.47;5032666;28;20053;-50
2022/09/22 04:09:21;;;;;;;6.72;3.20;;;;;;;6.34;100.00;102266.72;5032196;28;20048;-50
2022/09/22 04:11:51;;;;;;;5.97;3.13;;;;;;;6.34;100.00;102259.75;5031851;28;20107;-50
2022/09/22 04:14:19;;;;;;;7.43;3.05;;;;;;;6.38;100.00;102258.78;5032523;28;20041;-51
2022/09/22 04:16:47;;;;;;;7.60;2.95;;;;;;;6.35;100.00;102256.22;5031004;28;20076;-48
2022/09/22 04:19:15;;;;;;;7.10;3.30;;;;;;;6.37;100.00;102245.75;5032267;28;20111;-47
2022/09/22 04:21:44;;;;;;;5.32;2.97;;;;;;;6.29;100.00;102252.91;5032899;28;20519;-51
2022/09/22 04:24:12;;;;;;;7.03;3.30;;;;;;;6.32;100.00;102247.59;5032500;28;20091;-49
2022/09/22 04:26:40;;;;;;;6.90;3.30;;;;;;;6.26;100.00;102248.63;5032474;28;20041;-49
2022/09/22 04:29:29;;;;;;;6.75;3.08;;;;;;;6.23;100.00;102249.56;5032339;28;20044;-50
2022/09/22 04:31:57;;;;;;;7.20;3.35;;;;;;;6.23;100.00;102246.06;5030736;28;20083;-48
2022/09/22 04:34:25;;;;;;;7.00;3.55;;;;;;;6.35;100.00;102252.75;5032401;28;20053;-47
2022/09/22 04:36:53;;;;;;;7.25;3.67;;;;;;;6.35;100.00;102253.59;5032824;28;20120;-52
2022/09/22 04:39:21;;;;;;;7.20;3.53;;;;;;;6.31;100.00;102256.34;5032238;28;20049;-48
2022/09/22 04:41:51;;;;;;;7.15;3.78;;;;;;;6.12;100.00;102241.09;5013963;28;20049;-48
2022/09/22 04:44:19;;;;;;;9.15;3.50;;;;;;;6.30;100.00;102254.63;5031929;28;20046;-47
2022/09/22 04:46:51;;;;;;;7.20;3.90;;;;;;;6.17;100.00;102244.47;5030702;28;21039;-48
2022/09/22 04:49:19;;;;;;;6.85;3.30;;;;;;;6.16;100.00;102244.50;5032000;28;20046;-46
2022/09/22 04:51:47;;;;;;;7.05;3.53;;;;;;;6.21;100.00;102248.72;5032073;28;20073;-50
2022/09/22 04:54:15;;;;;;;7.38;4.00;;;;;;;6.15;100.00;102250.63;5031733;28;20081;-49
2022/09/22 04:56:43;;;;;;;6.47;3.50;;;;;;;6.09;100.00;102249.03;5031563;28;20045;-46
2022/09/22 04:59:12;;;;;;;8.13;3.85;;;;;;;6.12;100.00;102248.94;5031382;28;20040;-47
2022/09/22 05:01:40;;;;;;;8.27;3.95;;;;;;;6.16;100.00;102250.59;5012341;28;20123;-49
2022/09/22 05:04:10;;;;;;;7.65;4.20;;;;;;;6.10;100.00;102253.34;5013945;28;20061;-50
2022/09/22 05:06:38;;;;;;;7.90;3.92;;;;;;;6.11;100.00;102255.09;5032141;28;20108;-47
2022/09/22 05:09:06;;;;;;;8.25;3.55;;;;;;;6.05;100.00;102247.38;5030630;28;20049;-51
2022/09/22 05:11:34;;;;;;;6.25;2.95;;;;;;;5.96;100.00;102260.59;5030676;28;20061;-47
2022/09/22 05:14:02;;;;;;;7.05;3.78;;;;;;;5.98;100.00;102248.44;5013897;28;20443;-50
2022/09/22 05:16:30;;;;;;;7.50;3.80;;;;;;;6.01;100.00;102254.44;5029821;28;20103;-49
2022/09/22 05:18:59;;;;;;;7.03;3.58;;;;;;;6.03;100.00;102246.56;5031637;28;20038;-48
2022/09/22 05:21:28;;;;;;;7.40;3.88;;;;;;;5.98;100.00;102253.66;5031254;28;20168;-52
2022/09/22 05:23:57;;;;;;;8.23;4.10;;;;;;;5.93;100.00;102256.31;5031671;28;20099;-52
2022/09/22 05:26:25;;;;;;;9.20;4.13;;;;;;;5.98;100.00;102251.03;5013059;28;20519;-49
2022/09/22 05:28:56;;;;;;;9.25;3.90;;;;;;;5.99;100.00;102257.97;5031306;28;20046;-50
2022/09/22 05:31:24;;;;;;;7.65;3.80;;;;;;;6.06;100.00;102263.00;5028589;28;20393;-49
2022/09/22 05:33:52;;;;;;;7.03;3.95;;;;;;;6.06;100.00;102254.31;5029840;28;20096;-49
2022/09/22 05:36:21;;;;;;;8.55;4.00;;;;;;;5.93;100.00;102257.19;5030491;28;20160;-50
2022/09/22 05:38:50;;;;;;;8.02;4.07;;;;;;;5.89;100.00;102257.28;5031018;28;20041;-48
2022/09/22 05:41:18;;;;;;;8.52;4.45;;;;;;;6.05;100.00;102261.31;5030321;28;20073;-50
2022/09/22 05:43:46;;;;;;;8.10;4.35;;;;;;;5.91;100.00;102256.34;5031182;28;20050;-47
2022/09/22 05:46:15;;;;;;;8.63;4.45;;;;;;;5.98;100.00;102256.25;5028952;28;20504;-49
2022/09/22 05:48:43;;;;;;;8.75;4.75;;;;;;;5.96;100.00;102252.78;5030722;28;20049;-48
2022/09/22 05:51:11;;;;;;;10.23;4.53;;;;;;;6.00;100.00;102257.06;5030358;28;20092;-49
2022/09/22 05:53:39;;;;;;;9.10;4.68;;;;;;;5.96;100.00;102250.16;5031236;28;20100;-52
2022/09/22 05:56:08;;;;;;;7.60;4.47;;;;;;;6.03;100.00;102254.41;5029866;28;20496;-47
2022/09/22 05:58:36;;;;;;;11.18;4.65;;;;;;;6.01;100.00;102253.56;5030839;28;20101;-48
2022/09/22 06:01:05;;;;;;;10.65;5.05;;;;;;;6.01;100.00;102249.22;5028388;28;20053;-50
2022/09/22 06:03:33;;;;;;;12.90;4.40;;;;;;;5.97;100.00;102249.28;5030766;28;20055;-46
2022/09/22 06:06:01;;;;;;;11.38;4.93;;;;;;;6.05;100.00;102258.69;5030497;28;20524;-50
2022/09/22 06:08:29;;;;;;;10.00;4.93;;;;;;;6.04;100.00;102253.47;5030712;28;20045;-49
2022/09/22 06:10:58;;;;;;;12.02;5.07;;;;;;;6.14;100.00;102254.16;5029871;28;20069;-48
2022/09/22 06:13:27;;;;;;;11.27;5.03;;;;;;;6.06;100.00;102262.16;5030340;28;20049;-48
2022/09/22 06:15:55;;;;;;;11.00;5.07;;;;;;;6.14;100.00;102259.38;5011379;28;20084;-50
2022/09/22 06:18:25;;;;;;;11.48;4.85;;;;;;;6.32;100.00;102256.28;5030226;28;20192;-51
2022/09/22 06:20:54;;;;;;;13.95;4.57;;;;;;;6.38;100.00;102261.38;5029333;28;20511;-52
2022/09/22 06:23:24;;;;;;;8.05;4.30;;;;;;;6.34;100.00;102262.34;5030048;28;20041;-49
2022/09/22 06:25:56;;;;;;;9.55;5.05;;;;;;;6.43;100.00;102256.91;5029729;28;20052;-49
2022/09/22 06:28:25;;;;;;;12.13;5.10;;;;;;;6.45;100.00;102259.47;5030182;28;20053;-49
2022/09/22 06:30:59;;;;;;;11.27;5.28;;;;;;;6.60;100.00;102256.47;5028842;28;20124;-49
2022/09/22 06:33:27;;;;;;;9.75;5.50;;;;;;;6.65;100.00;102263.31;5030046;28;20140;-50
2022/09/22 06:35:56;;;;;;;12.75;6.38;;;;;;;6.77;100.00;102261.22;5030536;28;20069;-51
2022/09/22 06:38:25;;;;;;;11.85;5.90;;;;;;;6.76;100.00;102261.28;5030078;28;20073;-50
2022/09/22 06:41:00;;;;;;;12.43;5.95;;;;;;;6.81;100.00;102256.78;5030078;28;20156;-52
2022/09/22 06:43:28;;;;;;;11.40;6.38;;;;;;;6.98;100.00;102268.56;5030195;28;20467;-51
2022/09/22 06:46:01;;;;;;;11.95;6.60;;;;;;;6.97;100.00;102258.97;5029085;28;20045;-50
2022/09/22 06:48:30;;;;;;;13.15;6.45;;;;;;;7.14;100.00;102254.16;5030390;28;20419;-49
2022/09/22 06:50:58;;;;;;;15.65;7.68;;;;;;;7.27;100.00;102259.91;5030209;28;20100;-47
2022/09/22 06:53:26;;;;;;;18.80;8.52;;;;;;;7.28;100.00;102256.41;5029793;28;20049;-50
2022/09/22 06:55:55;;;;;;;15.90;10.05;;;;;;;7.35;100.00;102262.28;5029964;28;20120;-48
2022/09/22 06:58:24;;;;;;;15.80;9.70;;;;;;;7.39;100.00;102263.91;5029336;28;20111;-49
2022/09/22 07:00:52;;;;;;;16.98;11.48;;;;;;;7.50;100.00;102261.84;5010736;28;20056;-49
2022/09/22 07:03:26;;;;;;;15.82;11.60;;;;;;;7.59;100.00;102256.34;5029245;28;20049;-48
2022/09/22 07:05:56;;;;;;;19.02;13.50;;;;;;;7.74;100.00;102260.25;5030046;28;20392;-48
2022/09/22 07:08:25;;;;;;;17.13;14.00;;;;;;;7.85;100.00;102259.91;5029437;28;20049;-50
2022/09/22 07:10:55;;;;;;;20.42;13.15;;;;;;;8.01;100.00;102262.06;5029557;28;20137;-50
2022/09/22 07:13:23;;;;;;;26.10;13.88;;;;;;;8.17;100.00;102257.19;5011720;28;20061;-50
2022/09/22 07:15:52;;;;;;;22.08;13.93;;;;;;;8.43;100.00;102243.22;5028628;28;20519;-51
2022/09/22 07:18:22;;;;;;;16.00;13.75;;;;;;;8.69;100.00;102254.63;5029003;28;20076;-51
2022/09/22 07:20:50;;;;;;;18.30;13.60;;;;;;;8.83;100.00;102252.34;5029610;28;20567;-50
2022/09/22 07:23:19;;;;;;;16.48;13.40;;;;;;;9.17;100.00;102248.50;5029521;28;20058;-50
2022/09/22 07:25:55;;;;;;;16.95;13.05;;;;;;;9.26;100.00;102256.03;5029722;28;20073;-52
2022/09/22 07:28:24;;;;;;;15.80;13.32;;;;;;;9.50;100.00;102253.41;5029534;28;20772;-48
2022/09/22 07:30:52;;;;;;;17.35;13.10;;;;;;;9.72;100.00;102255.19;5028077;28;20049;-52
2022/09/22 07:33:22;;;;;;;16.40;13.35;;;;;;;10.06;100.00;102252.09;5032002;28;20092;-52
2022/09/22 07:36:00;;;;;;;19.65;12.18;;;;;;;10.30;100.00;102250.22;5015759;28;20054;-54
2022/09/22 07:38:32;;;;;;;15.60;11.85;;;;;;;10.44;100.00;102251.44;5033642;28;20396;-52
2022/09/22 07:41:01;;;;;;;16.73;12.18;;;;;;;10.59;100.00;102256.09;5032588;28;20424;-52
2022/09/22 07:43:29;;;;;;;17.33;11.93;;;;;;;10.90;100.00;102257.38;5033276;28;20049;-52
2022/09/22 07:45:57;;;;;;;13.85;11.23;;;;;;;11.12;100.00;102254.63;5014374;28;20046;-53
2022/09/22 07:48:41;;;;;;;18.33;11.75;;;;;;;11.16;100.00;102244.81;5015530;28;20053;-50
2022/09/22 07:51:11;;;;;;;16.75;11.68;;;;;;;11.55;100.00;102249.19;5032627;28;20052;-53
2022/09/22 07:53:44;;;;;;;14.73;11.45;;;;;;;11.82;100.00;102248.78;5033142;28;20069;-49
2022/09/22 07:56:15;;;;;;;15.65;10.95;;;;;;;11.97;100.00;102253.34;5032345;28;20448;-50
2022/09/22 07:58:48;;;;;;;14.80;10.30;;;;;;;12.07;100.00;102252.91;5033040;28;20447;-51
2022/09/22 08:01:18;;;;;;;15.77;10.02;;;;;;;12.22;100.00;102246.03;5030937;28;20088;-53
2022/09/22 08:03:47;;;;;;;14.40;9.45;;;;;;;12.29;100.00;102244.78;5032810;28;20080;-53
2022/09/22 08:06:18;;;;;;;14.85;9.80;;;;;;;12.54;100.00;102241.75;5032160;28;20092;-53
2022/09/22 08:08:51;;;;;;;13.98;8.68;;;;;;;12.71;100.00;102242.66;5032436;28;20053;-54
2022/09/22 08:11:21;;;;;;;11.68;9.23;;;;;;;12.88;100.00;102241.78;5014781;28;20762;-54
2022/09/22 08:13:52;;;;;;;11.18;9.00;;;;;;;12.88;100.00;102245.25;5032517;28;20049;-53
2022/09/22 08:16:21;;;;;;;14.80;9.15;;;;;;;13.13;100.00;102243.94;5030575;28;20699;-55
2022/09/22 08:18:55;;;;;;;14.65;9.15;;;;;;;13.33;100.00;102240.25;5032357;28;20072;-55
2022/09/22 08:21:23;;;;;;;12.45;8.25;;;;;;;13.63;100.00;102243.03;5032018;28;20084;-54
2022/09/22 08:23:52;;;;;;;15.55;9.07;;;;;;;13.85;100.00;102229.44;5032785;28;20160;-54
2022/09/22 08:26:21;;;;;;;15.95;8.20;;;;;;;14.04;100.00;102231.00;5031987;28;20057;-55
2022/09/22 08:28:51;;;;;;;14.13;8.18;;;;;;;14.07;100.00;102229.97;5014784;28;20049;-55
2022/09/22 08:31:20;;;;;;;16.48;8.63;;;;;;;14.11;99.82;102235.03;5030570;28;20045;-55
2022/09/22 08:33:51;;;;;;;11.90;8.00;;;;;;;14.35;100.00;102235.34;5032360;28;20176;-55
2022/09/22 08:36:20;;;;;;;12.32;8.45;;;;;;;14.41;99.93;102234.16;5031712;28;20053;-55
2022/09/22 08:38:49;;;;;;;12.23;7.80;;;;;;;14.64;97.76;102231.94;5032060;28;20120;-55
2022/09/22 08:41:24;;;;;;;12.98;7.45;;;;;;;14.82;97.38;102225.56;5031102;28;20068;-56
2022/09/22 08:43:56;;;;;;;11.77;7.90;;;;;;;15.06;96.45;102232.91;5032122;28;20037;-56
2022/09/22 08:46:28;;;;;;;15.00;7.40;;;;;;;15.18;95.67;102237.44;5030441;28;20046;-56
2022/09/22 08:51:53;;;;;;;14.52;7.45;;;;;;;15.46;96.02;102229.53;5031774;28;20045;-54
2022/09/22 08:54:26;;;;;;;12.73;7.20;;;;;;;15.60;93.37;102232.16;5032022;28;20049;-54
2022/09/22 08:57:00;;;;;;;;;;;;;;;15.83;90.65;102229.88;5032078;28;20488;-54
2022/09/22 08:59:36;;;;;;;14.75;7.15;;;;;;;16.09;89.39;102235.22;5032297;28;19921;-55
2022/09/22 09:02:41;;;;;;;12.82;6.05;;;;;;;16.28;86.48;102225.09;5012167;28;20102;-55
2022/09/22 09:05:39;;;;;;;11.50;6.75;;;;;;;16.39;82.68;102222.56;4969877;28;20122;-55
2022/09/22 09:08:29;;;;;;;11.88;6.63;;;;;;;16.44;82.21;102216.06;5030589;28;20483;-56
2022/09/22 09:11:07;;;;;;;14.38;6.82;;;;;;;16.76;83.15;102224.47;5016006;28;20076;-55
2022/09/22 09:13:56;;;;;;;14.73;6.43;;;;;;;16.81;81.48;102227.69;5031808;28;20048;-56
2022/09/22 09:16:44;;;;;;;11.07;6.05;;;;;;;16.98;80.17;102223.84;5029573;28;20077;-55
2022/09/22 09:19:17;;;;;;;11.70;6.22;;;;;;;17.07;77.14;102217.06;5028226;28;20054;-56
2022/09/22 09:21:51;;;;;;;10.80;5.70;;;;;;;17.31;80.43;102224.22;5031059;28;20072;-56
2022/09/22 09:24:30;;;;;;;10.98;5.95;;;;;;;17.40;74.49;102219.06;5031059;28;20384;-56
2022/09/22 09:27:22;;;;;;;10.55;5.25;;;;;;;17.69;77.56;102213.44;5030666;28;20397;-58
2022/09/22 09:30:00;;;;;;;10.38;5.13;;;;;;;17.82;74.83;102212.50;5031355;28;20057;-56
2022/09/22 09:32:42;;;;;;;12.30;5.80;;;;;;;18.12;77.12;102217.41;5029381;28;20107;-54
2022/09/22 09:35:14;;;;;;;12.48;5.40;;;;;;;18.18;71.53;102213.41;5030514;28;20057;-56
2022/09/22 09:37:45;;;;;;;9.10;5.13;;;;;;;18.38;71.94;102207.41;5031428;28;20049;-54
2022/09/22 09:40:16;;;;;;;10.00;4.43;;;;;;;18.49;70.81;102208.41;5030520;28;20073;-55
2022/09/22 09:42:47;;;;;;;11.48;4.68;;;;;;;18.68;70.37;102210.47;5030877;28;20460;-56
2022/09/22 09:45:16;;;;;;;9.35;4.78;;;;;;;18.83;68.59;102206.63;5012526;28;20064;-55
2022/09/22 09:48:01;;;;;;;7.35;3.25;;;;;;;19.03;64.84;102207.72;5011409;28;20140;-55
2022/09/22 09:50:30;;;;;;;9.27;3.35;;;;;;;19.23;63.19;102207.94;5030506;28;20045;-56
2022/09/22 09:53:02;;;;;;;9.40;4.15;;;;;;;19.43;63.07;102207.16;5030838;28;20045;-58
2022/09/22 09:55:34;;;;;;;10.85;4.32;;;;;;;19.64;63.58;102210.88;5030126;28;20076;-55
2022/09/22 09:58:06;;;;;;;11.88;4.47;;;;;;;19.62;61.41;102200.34;5030150;28;20045;-56
2022/09/22 10:00:34;;;;;;;9.85;3.97;;;;;;;19.82;62.14;102200.53;5030289;28;20084;-55
2022/09/22 10:03:15;;;;;;;8.27;3.88;;;;;;;19.84;62.38;102204.75;5028145;28;20511;-56
2022/09/22 10:05:44;;;;;;;10.75;3.80;;;;;;;20.17;59.22;102200.22;5030405;28;20490;-55
2022/09/22 10:08:20;;;;;;;10.30;3.75;;;;;;;20.45;58.06;102195.22;5030413;28;20477;-55
2022/09/22 10:10:48;;;;;;;7.55;3.90;;;;;;;20.48;57.07;102194.06;5030299;28;20053;-55
2022/09/22 10:13:27;;;;;;;9.57;3.97;;;;;;;20.71;57.22;102203.66;5030219;28;20041;-58
2022/09/22 10:16:06;;;;;;;10.43;4.25;;;;;;;20.97;57.06;102197.84;5030112;28;20728;-58
2022/09/22 10:18:39;;;;;;;9.63;4.13;;;;;;;21.04;56.39;102190.97;5030885;28;20053;-58
2022/09/22 10:21:16;;;;;;;8.68;4.18;;;;;;;21.18;53.41;102196.91;5030759;28;20045;-59
2022/09/22 10:23:46;;;;;;;7.05;3.22;;;;;;;21.32;53.33;102199.19;5030877;28;20044;-58
2022/09/22 10:26:20;;;;;;;10.13;3.50;;;;;;;21.36;50.87;102181.03;5030051;28;20041;-58
2022/09/22 10:29:08;;;;;;;8.43;3.78;;;;;;;21.57;50.79;102183.66;5031265;28;20045;-59
2022/09/22 10:31:37;;;;;;;9.68;4.82;;;;;;;21.44;50.71;102183.88;5030275;28;20129;-60
2022/09/22 10:34:24;;;;;;;9.75;4.78;;;;;;;21.44;53.08;102183.88;5031046;28;20103;-59
2022/09/22 10:36:52;;;;;;;8.65;3.85;;;;;;;21.80;49.57;102178.00;5031166;28;20053;-59
2022/09/22 10:39:31;;;;;;;8.93;3.70;;;;;;;22.07;50.22;102171.91;5030973;28;20508;-61
2022/09/22 10:42:05;;;;;;;11.10;4.35;;;;;;;22.41;47.58;102166.91;5031171;28;20519;-60
2022/09/22 10:44:33;;;;;;;9.10;4.32;;;;;;;22.50;47.25;102164.34;5031672;28;20041;-59
2022/09/22 10:47:31;;;;;;;8.85;4.60;;;;;;;22.51;46.46;102155.31;5030613;28;20053;-60
2022/09/22 10:50:27;;;;;;;8.57;4.53;;;;;;;22.33;47.58;102147.16;5031228;28;20084;-60
2022/09/22 10:53:01;;;;;;;7.78;3.88;;;;;;;22.55;45.05;102156.69;5030182;28;20531;-60
2022/09/22 10:55:35;;;;;;;8.35;3.33;;;;;;;22.22;46.22;102151.72;5031315;28;20050;-60
2022/09/22 10:58:26;;;;;;;6.80;2.90;;;;;;;22.27;43.41;102151.28;5031494;28;20072;-61
2022/09/22 11:01:08;;;;;;;6.03;2.70;;;;;;;22.70;43.62;102149.00;5030705;28;20362;-61
2022/09/22 11:04:00;;;;;;;7.15;2.88;;;;;;;23.04;43.17;102148.41;5031481;28;20137;-61
2022/09/22 11:12:40;;;;;;;7.38;2.20;;;;;;;22.88;38.85;102133.81;5033336;28;20056;-58
2022/09/22 11:15:33;;;;;;;7.65;2.38;;;;;;;23.56;39.41;102140.56;5033187;28;20059;-58
2022/09/22 11:18:29;;;;;;;6.03;2.90;;;;;;;23.73;39.04;102136.16;5032173;28;20053;-58
2022/09/22 11:21:12;;;;;;;5.57;2.35;;;;;;;24.15;39.37;102131.97;5034020;28;20059;-57
2022/09/22 11:24:04;;;;;;;6.43;2.28;;;;;;;24.49;38.51;102131.13;5033897;28;20038;-58
2022/09/22 11:26:48;;;;;;;3.88;1.50;;;;;;;24.61;36.49;102134.38;5033242;28;20500;-58
2022/09/22 11:29:52;;;;;;;3.92;1.88;;;;;;;24.27;36.28;102128.00;5033139;28;20075;-59
2022/09/22 11:32:46;;;;;;;5.45;2.00;;;;;;;24.92;36.70;102128.47;5017626;28;20140;-57
2022/09/22 11:35:30;;;;;;;6.65;2.13;;;;;;;25.12;36.12;102132.53;5032991;28;20099;-58
2022/09/22 11:38:13;;;;;;;8.48;2.33;;;;;;;25.37;34.97;102121.81;5033481;28;20049;-58
2022/09/22 11:41:09;;;;;;;5.57;2.15;;;;;;;25.63;36.25;102112.75;5035720;28;20504;-62
2022/09/22 11:43:50;;;;;;;5.38;2.10;;;;;;;26.04;33.81;102118.13;5026636;28;20534;-61
2022/09/22 11:46:33;;;;;;;4.40;1.90;;;;;;;26.00;33.42;102114.06;5035565;28;20046;-62
2022/09/22 11:49:10;;;;;;;6.22;2.05;;;;;;;26.12;33.34;102112.72;5035527;28;20046;-63
2022/09/22 11:51:56;;;;;;;5.10;2.00;;;;;;;25.95;33.95;102102.97;5035532;28;20042;-63
2022/09/22 11:54:51;;;;;;;3.25;1.65;;;;;;;26.29;33.71;102094.63;5035703;28;20049;-62
2022/09/22 11:57:23;;;;;;;5.18;2.00;;;;;;;25.62;32.47;102100.31;5030735;28;20061;-62
2022/09/22 11:59:56;;;;;;;4.38;1.90;;;;;;;25.37;33.87;102086.84;5017708;28;20057;-62